createdAt,value
2018-12-17T00:02:28.427Z,98.85
2018-12-17T00:04:57.005Z,98.47
2018-12-17T00:07:25.573Z,98.40
2018-12-17T00:09:55.019Z,98.19
2018-12-17T00:12:23.526Z,98.31
2018-12-17T00:14:52.069Z,98.31
2018-12-17T00:17:20.654Z,98.39
2018-12-17T00:19:49.144Z,98.00
2018-12-17T00:22:17.614Z,98.02
2018-12-17T00:24:46.277Z,97.98
2018-12-17T00:27:14.813Z,97.41
2018-12-17T00:29:43.433Z,97.99
2018-12-17T00:32:12.347Z,97.98
2018-12-17T00:34:41.073Z,97.46
2018-12-17T00:37:10.453Z,97.32
2018-12-17T00:39:39.029Z,97.71
2018-12-17T00:42:07.493Z,97.63
2018-12-17T00:44:35.967Z,97.65
2018-12-17T00:47:04.473Z,97.66
2018-12-17T00:49:33.127Z,97.41
2018-12-17T00:52:02.685Z,97.27
2018-12-17T00:54:31.297Z,97.44
2018-12-17T00:56:59.774Z,97.22
2018-12-17T00:59:28.307Z,97.86
2018-12-17T01:01:56.900Z,98.13
2018-12-17T01:04:25.406Z,98.28
2018-12-17T01:06:54.019Z,98.03
2018-12-17T01:09:22.584Z,98.21
2018-12-17T01:11:51.143Z,97.73
2018-12-17T01:14:19.657Z,97.51
2018-12-17T01:16:48.722Z,97.88
2018-12-17T01:19:17.212Z,98.19
2018-12-17T01:21:46.104Z,98.19
2018-12-17T01:24:14.688Z,98.06
2018-12-17T01:26:43.191Z,98.45
2018-12-17T01:32:11.075Z,97.94
2018-12-17T01:34:40.338Z,98.44
2018-12-17T01:37:08.824Z,97.89
2018-12-17T01:39:37.467Z,98.16
2018-12-17T01:42:05.998Z,98.30
2018-12-17T01:44:34.497Z,98.41
2018-12-17T01:47:03.047Z,98.10
2018-12-17T01:49:32.195Z,97.70
2018-12-17T01:52:01.428Z,96.78
2018-12-17T01:54:29.954Z,97.48
2018-12-17T01:56:58.451Z,98.21
2018-12-17T01:59:27.061Z,99.08
2018-12-17T02:01:55.742Z,99.35
2018-12-17T02:04:24.265Z,99.20
2018-12-17T02:06:52.760Z,100.00
2018-12-17T02:09:21.285Z,100.00
2018-12-17T02:11:49.816Z,99.91
2018-12-17T02:14:18.293Z,99.98
2018-12-17T02:16:46.814Z,100.00
2018-12-17T02:19:15.930Z,100.00
2018-12-17T02:21:44.583Z,99.71
2018-12-17T02:24:13.275Z,99.57
2018-12-17T02:26:41.742Z,100.00
2018-12-17T02:29:10.280Z,99.81
2018-12-17T02:31:38.796Z,99.11
2018-12-17T02:34:07.494Z,99.72
2018-12-17T02:36:35.957Z,99.11
2018-12-17T02:39:06.831Z,100.00
2018-12-17T02:41:35.485Z,99.80
2018-12-17T02:44:04.045Z,100.00
2018-12-17T02:46:33.191Z,100.00
2018-12-17T02:49:01.795Z,99.88
2018-12-17T02:51:30.945Z,99.87
2018-12-17T02:53:59.497Z,99.94
2018-12-17T02:56:28.088Z,99.44
2018-12-17T02:58:56.617Z,99.70
2018-12-17T03:01:25.222Z,99.16
2018-12-17T03:03:53.691Z,99.39
2018-12-17T03:06:23.085Z,98.97
2018-12-17T03:08:51.581Z,99.17
2018-12-17T03:11:20.149Z,99.07
2018-12-17T03:13:48.746Z,99.02
2018-12-17T03:16:17.366Z,98.97
2018-12-17T03:18:45.923Z,98.29
2018-12-17T03:21:14.452Z,98.34
2018-12-17T03:23:42.985Z,98.40
2018-12-17T03:26:11.601Z,98.07
2018-12-17T03:28:40.194Z,98.59
2018-12-17T03:31:08.810Z,98.58
2018-12-17T03:33:37.316Z,98.35
2018-12-17T03:36:06.396Z,98.31
2018-12-17T03:38:34.951Z,98.02
2018-12-17T03:41:05.555Z,98.20
2018-12-17T03:43:34.132Z,97.97
2018-12-17T03:46:02.733Z,97.99
2018-12-17T03:48:32.322Z,97.67
2018-12-17T03:51:00.934Z,97.31
2018-12-17T03:53:30.482Z,97.21
2018-12-17T03:55:59.490Z,97.91
2018-12-17T03:58:28.587Z,97.30
2018-12-17T04:00:57.101Z,97.67
2018-12-17T04:03:25.673Z,97.65
2018-12-17T04:05:54.236Z,97.62
2018-12-17T04:08:22.889Z,96.86
2018-12-17T04:10:51.490Z,97.23
2018-12-17T04:13:20.002Z,97.80
2018-12-17T04:15:48.570Z,98.14
2018-12-17T04:18:17.697Z,98.26
2018-12-17T04:20:46.254Z,97.42
2018-12-17T04:23:14.857Z,98.06
2018-12-17T04:25:43.394Z,98.30
2018-12-17T04:28:11.930Z,98.11
2018-12-17T04:30:40.948Z,97.85
2018-12-17T04:33:09.493Z,97.20
2018-12-17T04:35:38.701Z,97.16
2018-12-17T04:38:07.296Z,97.92
2018-12-17T04:40:35.880Z,98.14
2018-12-17T04:43:04.357Z,98.82
2018-12-17T04:45:32.940Z,98.40
2018-12-17T04:48:01.617Z,98.32
2018-12-17T04:50:30.229Z,98.40
2018-12-17T04:52:58.729Z,99.71
2018-12-17T04:55:27.396Z,99.87
2018-12-17T04:57:56.164Z,98.98
2018-12-17T05:00:24.679Z,99.84
2018-12-17T05:02:53.205Z,99.62
2018-12-17T05:05:21.786Z,99.62
2018-12-17T05:07:50.344Z,99.79
2018-12-17T05:10:19.232Z,99.06
2018-12-17T05:12:48.493Z,98.15
2018-12-17T05:15:17.367Z,98.43
2018-12-17T05:17:45.908Z,99.23
2018-12-17T05:20:14.449Z,99.26
2018-12-17T05:22:43.612Z,98.63
2018-12-17T05:25:12.744Z,98.86
2018-12-17T05:27:41.589Z,100.00
2018-12-17T05:30:10.139Z,100.00
2018-12-17T05:32:39.233Z,100.00
2018-12-17T05:35:07.737Z,99.86
2018-12-17T05:37:36.749Z,100.00
2018-12-17T05:40:05.750Z,100.00
2018-12-17T05:42:34.300Z,99.93
2018-12-17T05:45:03.537Z,100.00
2018-12-17T05:47:32.059Z,100.00
2018-12-17T05:50:00.589Z,100.00
2018-12-17T05:52:29.179Z,100.00
2018-12-17T05:54:57.649Z,100.00
2018-12-17T05:57:26.105Z,100.00
2018-12-17T05:59:54.628Z,99.63
2018-12-17T06:02:23.687Z,99.76
2018-12-17T06:04:52.223Z,99.16
2018-12-17T06:07:21.439Z,99.22
2018-12-17T06:09:49.899Z,99.17
2018-12-17T06:12:18.365Z,98.66
2018-12-17T06:14:46.835Z,98.33
2018-12-17T06:17:16.417Z,98.05
2018-12-17T06:19:45.168Z,97.52
2018-12-17T06:22:13.709Z,97.24
2018-12-17T06:24:42.965Z,97.18
2018-12-17T06:27:12.458Z,97.41
2018-12-17T06:29:40.939Z,98.56
2018-12-17T06:32:10.789Z,98.83
2018-12-17T06:34:39.266Z,98.91
2018-12-17T06:37:07.833Z,99.14
2018-12-17T06:39:36.256Z,99.25
2018-12-17T06:42:04.783Z,99.08
2018-12-17T06:44:33.318Z,98.43
2018-12-17T06:47:02.401Z,98.67
2018-12-17T06:49:30.990Z,98.24
2018-12-17T06:51:59.813Z,98.58
2018-12-17T06:54:28.645Z,98.33
2018-12-17T06:56:57.130Z,98.15
2018-12-17T06:59:25.758Z,98.11
2018-12-17T07:01:54.463Z,97.75
2018-12-17T07:04:23.085Z,97.82
2018-12-17T07:06:52.943Z,97.71
2018-12-17T07:09:21.517Z,97.46
2018-12-17T07:11:50.103Z,97.33
2018-12-17T07:14:18.592Z,96.88
2018-12-17T07:16:47.278Z,96.95
2018-12-17T07:19:15.830Z,97.05
2018-12-17T07:21:44.324Z,96.76
2018-12-17T07:24:14.080Z,96.79
2018-12-17T07:26:43.446Z,97.16
2018-12-17T07:29:12.078Z,96.75
2018-12-17T07:31:40.613Z,96.84
2018-12-17T07:34:09.060Z,97.01
2018-12-17T07:36:37.557Z,97.35
2018-12-17T07:39:08.225Z,97.21
2018-12-17T07:41:37.376Z,98.92
2018-12-17T07:44:05.888Z,95.93
2018-12-17T07:46:35.051Z,95.54
2018-12-17T07:49:03.723Z,96.99
2018-12-17T07:51:32.924Z,95.11
2018-12-17T07:54:01.639Z,94.10
2018-12-17T07:56:31.823Z,93.96
2018-12-17T07:59:00.644Z,95.08
2018-12-17T08:01:29.744Z,97.62
2018-12-17T08:03:59.560Z,97.28
2018-12-17T08:06:28.053Z,100.00
2018-12-17T08:08:56.567Z,97.37
2018-12-17T08:11:25.220Z,95.59
2018-12-17T08:13:53.978Z,95.38
2018-12-17T08:16:22.698Z,95.93
2018-12-17T08:18:51.230Z,96.66
2018-12-17T08:21:19.768Z,96.53
2018-12-17T08:23:48.390Z,96.50
2018-12-17T08:26:16.987Z,95.84
2018-12-17T08:28:45.541Z,96.42
2018-12-17T08:31:13.989Z,95.75
2018-12-17T08:33:42.542Z,95.95
2018-12-17T08:36:11.036Z,96.18
2018-12-17T08:38:39.540Z,95.03
2018-12-17T08:41:08.093Z,95.18
2018-12-17T08:43:38.000Z,95.87
2018-12-17T08:46:07.954Z,96.10
2018-12-17T08:48:36.523Z,96.40
2018-12-17T08:51:05.031Z,96.06
2018-12-17T08:53:33.632Z,95.50
2018-12-17T08:56:02.685Z,95.42
2018-12-17T08:58:31.553Z,96.58
2018-12-17T09:01:00.077Z,96.67
2018-12-17T09:03:28.695Z,94.97
2018-12-17T09:05:57.432Z,96.20
2018-12-17T09:08:25.933Z,96.54
2018-12-17T09:10:54.420Z,95.47
2018-12-17T09:13:23.017Z,96.01
2018-12-17T09:15:51.562Z,95.44
2018-12-17T09:18:20.136Z,95.45
2018-12-17T09:20:48.606Z,95.12
2018-12-17T09:23:17.093Z,97.19
2018-12-17T09:25:46.086Z,95.57
2018-12-17T09:28:14.721Z,96.00
2018-12-17T09:30:43.192Z,95.76
2018-12-17T09:33:11.618Z,95.94
2018-12-17T09:35:40.103Z,95.86
2018-12-17T09:38:08.612Z,95.32
2018-12-17T09:40:37.250Z,95.68
2018-12-17T09:43:05.944Z,95.17
2018-12-17T09:45:34.454Z,95.74
2018-12-17T09:48:03.933Z,96.39
2018-12-17T09:50:32.352Z,96.87
2018-12-17T09:53:00.868Z,96.33
2018-12-17T09:55:29.376Z,96.62
2018-12-17T09:57:57.876Z,97.23
2018-12-17T10:00:26.278Z,95.48
2018-12-17T10:02:54.809Z,97.19
2018-12-17T10:05:24.252Z,97.08
2018-12-17T10:07:52.732Z,97.83
2018-12-17T10:10:21.273Z,97.21
2018-12-17T10:12:49.771Z,97.74
2018-12-17T10:15:19.196Z,97.17
2018-12-17T10:17:48.477Z,97.67
2018-12-17T10:20:17.048Z,96.65
2018-12-17T10:22:45.500Z,97.40
2018-12-17T10:25:14.026Z,96.96
2018-12-17T10:27:42.729Z,97.41
2018-12-17T10:30:11.270Z,97.99
2018-12-17T10:32:40.353Z,98.08
2018-12-17T10:35:08.967Z,98.27
2018-12-17T10:37:37.471Z,98.15
2018-12-17T10:40:06.882Z,98.04
2018-12-17T10:42:35.350Z,97.34
2018-12-17T10:45:04.005Z,97.16
2018-12-17T10:47:33.856Z,97.23
2018-12-17T10:50:03.945Z,97.38
2018-12-17T10:52:32.651Z,96.73
2018-12-17T10:55:01.138Z,97.70
2018-12-17T10:57:29.688Z,96.67
2018-12-17T10:59:59.678Z,97.17
2018-12-17T11:02:32.494Z,95.27
2018-12-17T11:05:05.180Z,96.22
2018-12-17T11:07:34.591Z,95.13
2018-12-17T11:10:03.121Z,95.74
2018-12-17T11:12:31.999Z,96.71
2018-12-17T11:15:00.700Z,95.97
2018-12-17T11:17:29.772Z,94.58
2018-12-17T11:19:58.313Z,94.34
2018-12-17T11:22:27.694Z,95.46
2018-12-17T11:24:56.329Z,95.07
2018-12-17T11:27:24.847Z,96.34
2018-12-17T11:29:53.384Z,96.34
2018-12-17T11:32:22.168Z,96.55
2018-12-17T11:34:50.673Z,97.26
2018-12-17T11:37:19.273Z,97.95
2018-12-17T11:39:49.452Z,98.01
2018-12-17T11:42:17.924Z,99.18
2018-12-17T11:44:46.496Z,98.55
2018-12-17T11:47:15.058Z,98.46
2018-12-17T11:49:43.549Z,99.41
2018-12-17T11:52:12.082Z,99.00
2018-12-17T11:54:40.941Z,98.04
2018-12-17T11:58:14.449Z,96.94
2018-12-17T12:01:00.809Z,95.72
2018-12-17T12:03:30.267Z,96.07
2018-12-17T12:05:58.848Z,95.50
2018-12-17T12:08:28.359Z,97.83
2018-12-17T12:10:56.890Z,97.71
2018-12-17T12:13:26.276Z,97.73
2018-12-17T12:15:54.878Z,98.19
2018-12-17T12:18:24.094Z,98.62
2018-12-17T12:20:52.659Z,98.72
2018-12-17T12:23:21.201Z,98.76
2018-12-17T12:25:49.790Z,98.41
2018-12-17T12:28:19.323Z,98.90
2018-12-17T12:30:47.863Z,98.93
2018-12-17T12:33:16.490Z,99.32
2018-12-17T12:35:45.149Z,99.51
2018-12-17T12:38:13.656Z,99.66
2018-12-17T12:40:42.281Z,99.86
2018-12-17T12:43:11.482Z,99.65
2018-12-17T12:45:40.152Z,100.00
2018-12-17T12:48:08.704Z,99.35
2018-12-17T12:50:37.266Z,100.00
2018-12-17T12:53:05.977Z,100.00
2018-12-17T12:55:34.573Z,100.00
2018-12-17T12:58:04.056Z,100.00
2018-12-17T13:00:33.398Z,99.99
2018-12-17T13:03:02.593Z,100.00
2018-12-17T13:05:31.255Z,99.63
2018-12-17T13:08:00.264Z,100.00
2018-12-17T13:10:28.890Z,99.21
2018-12-17T13:12:58.081Z,99.24
2018-12-17T13:15:26.652Z,98.76
2018-12-17T13:17:55.149Z,97.98
2018-12-17T13:20:23.747Z,96.53
2018-12-17T13:22:53.278Z,96.41
2018-12-17T13:25:31.796Z,94.75
2018-12-17T13:28:00.409Z,96.10
2018-12-17T13:30:29.085Z,96.31
2018-12-17T13:32:58.517Z,97.19
2018-12-17T13:35:27.074Z,97.45
2018-12-17T13:37:55.594Z,98.16
2018-12-17T13:40:25.204Z,97.60
2018-12-17T13:42:53.676Z,97.24
2018-12-17T13:45:22.379Z,97.57
2018-12-17T13:47:50.813Z,97.86
2018-12-17T13:50:30.006Z,97.49
2018-12-17T13:53:00.265Z,97.58
2018-12-17T13:55:29.652Z,98.39
2018-12-17T13:57:58.156Z,98.52
2018-12-17T14:00:26.763Z,99.52
2018-12-17T14:02:55.223Z,99.24
2018-12-17T14:05:24.417Z,99.35
2018-12-17T14:07:52.972Z,99.12
2018-12-17T14:10:26.683Z,98.87
2018-12-17T14:12:55.240Z,99.05
2018-12-17T14:15:26.061Z,99.51
2018-12-17T14:17:56.049Z,99.63
2018-12-17T14:20:30.424Z,98.94
2018-12-17T14:23:00.864Z,99.22
2018-12-17T14:25:29.366Z,99.10
2018-12-17T14:27:57.905Z,96.89
2018-12-17T14:30:27.743Z,94.81
2018-12-17T14:32:56.394Z,95.49
2018-12-17T14:35:24.952Z,95.32
2018-12-17T14:37:58.682Z,96.92
2018-12-17T14:40:27.186Z,97.37
2018-12-17T14:42:55.733Z,97.92
2018-12-17T14:45:24.389Z,98.67
2018-12-17T14:47:52.984Z,99.67
2018-12-17T14:50:21.430Z,100.00
2018-12-17T14:52:50.714Z,99.59
2018-12-17T14:55:19.177Z,99.99
2018-12-17T14:57:47.617Z,99.81
2018-12-17T15:00:16.151Z,99.71
2018-12-17T15:02:46.236Z,100.00
2018-12-17T15:05:14.669Z,100.00
2018-12-17T15:07:43.869Z,100.00
2018-12-17T15:10:12.367Z,100.00
2018-12-17T15:12:40.941Z,100.00
2018-12-17T15:15:10.223Z,100.00
2018-12-17T15:17:39.776Z,100.00
2018-12-17T15:20:09.197Z,100.00
2018-12-17T15:22:37.817Z,100.00
2018-12-17T15:25:07.434Z,100.00
2018-12-17T15:27:35.986Z,100.00
2018-12-17T15:30:05.022Z,100.00
2018-12-17T15:32:33.676Z,100.00
2018-12-17T15:35:02.247Z,100.00
2018-12-17T15:37:30.761Z,99.97
2018-12-17T15:39:59.291Z,99.14
2018-12-17T15:42:27.943Z,99.05
2018-12-17T15:44:56.704Z,99.45
2018-12-17T15:47:26.074Z,98.83
2018-12-17T15:49:54.635Z,98.36
2018-12-17T15:52:23.249Z,98.87
2018-12-17T15:54:51.785Z,99.37
2018-12-17T15:57:20.501Z,99.46
2018-12-17T15:59:49.204Z,99.99
2018-12-17T16:02:17.835Z,99.67
2018-12-17T16:04:46.453Z,99.80
2018-12-17T16:07:15.092Z,99.92
2018-12-17T16:09:44.954Z,99.76
2018-12-17T16:12:14.315Z,99.14
2018-12-17T16:14:43.595Z,99.12
2018-12-17T16:17:12.968Z,98.67
2018-12-17T16:19:41.770Z,99.08
2018-12-17T16:22:10.630Z,99.48
2018-12-17T16:24:39.205Z,98.67
2018-12-17T16:27:09.490Z,98.75
2018-12-17T16:29:38.369Z,98.97
2018-12-17T16:32:07.083Z,98.87
2018-12-17T16:34:35.705Z,98.63
2018-12-17T16:37:05.122Z,98.89
2018-12-17T16:39:33.852Z,98.36
2018-12-17T16:42:02.499Z,98.67
2018-12-17T16:44:32.091Z,98.18
2018-12-17T16:47:00.784Z,98.37
2018-12-17T16:49:29.393Z,98.08
2018-12-17T16:51:57.978Z,98.10
2018-12-17T16:54:27.035Z,98.11
2018-12-17T16:56:57.121Z,98.26
2018-12-17T16:59:25.840Z,98.28
2018-12-17T17:01:54.785Z,98.34
2018-12-17T17:04:23.449Z,98.40
2018-12-17T17:06:52.296Z,98.13
2018-12-17T17:09:21.507Z,98.25
2018-12-17T17:11:50.748Z,97.63
2018-12-17T17:14:19.298Z,97.27
2018-12-17T17:16:48.391Z,97.69
2018-12-17T17:19:21.033Z,97.63
2018-12-17T17:21:49.912Z,98.06
2018-12-17T17:24:18.813Z,98.56
2018-12-17T17:26:47.995Z,98.49
2018-12-17T17:29:16.596Z,98.37
2018-12-17T17:31:45.413Z,98.46
2018-12-17T17:34:14.053Z,97.85
2018-12-17T17:36:42.966Z,97.61
2018-12-17T17:39:12.240Z,97.62
2018-12-17T17:41:40.774Z,97.28
2018-12-17T17:44:09.461Z,98.32
2018-12-17T17:46:38.061Z,98.44
2018-12-17T17:49:06.771Z,98.74
2018-12-17T17:51:36.951Z,98.89
2018-12-17T17:54:06.338Z,96.88
2018-12-17T17:56:34.906Z,98.19
2018-12-17T17:59:03.509Z,98.80
2018-12-17T18:01:37.627Z,98.09
2018-12-17T18:04:07.298Z,98.23
2018-12-17T18:06:35.887Z,98.20
2018-12-17T18:09:07.161Z,100.00
2018-12-17T18:11:40.089Z,98.51
2018-12-17T18:14:08.658Z,98.76
2018-12-17T18:16:37.174Z,98.43
2018-12-17T18:19:05.787Z,98.62
2018-12-17T18:21:34.404Z,98.53
2018-12-17T18:24:05.889Z,98.90
2018-12-17T18:26:34.475Z,98.67
2018-12-17T18:29:03.456Z,98.27
2018-12-17T18:31:33.924Z,98.77
2018-12-17T18:34:05.203Z,98.79
2018-12-17T18:36:33.802Z,99.66
2018-12-17T18:39:04.050Z,99.70
2018-12-17T18:41:33.200Z,99.50
2018-12-17T18:44:01.794Z,100.00
2018-12-17T18:46:30.347Z,100.00
2018-12-17T18:48:59.788Z,99.71
2018-12-17T18:51:29.053Z,100.00
2018-12-17T18:53:57.602Z,100.00
2018-12-17T18:56:26.227Z,99.76
2018-12-17T18:58:54.901Z,99.39
2018-12-17T19:01:24.182Z,99.73
2018-12-17T19:03:52.796Z,99.44
2018-12-17T19:06:21.418Z,98.99
2018-12-17T19:08:50.933Z,99.24
2018-12-17T19:11:20.054Z,99.36
2018-12-17T19:13:48.622Z,99.63
2018-12-17T19:16:17.297Z,99.62
2018-12-17T19:18:45.864Z,99.05
2018-12-17T19:21:14.543Z,98.70
2018-12-17T19:23:43.179Z,98.69
2018-12-17T19:26:11.880Z,98.82
2018-12-17T19:28:40.492Z,99.18
2018-12-17T19:31:09.140Z,99.10
2018-12-17T19:33:38.189Z,99.10
2018-12-17T19:36:06.800Z,98.62
2018-12-17T19:38:35.960Z,99.06
2018-12-17T19:41:05.515Z,99.23
2018-12-17T19:43:34.134Z,98.85
2018-12-17T19:46:03.012Z,98.82
2018-12-17T19:48:31.529Z,98.29
2018-12-17T19:51:00.842Z,98.80
2018-12-17T19:53:29.666Z,99.06
2018-12-17T19:55:58.354Z,99.03
2018-12-17T19:58:27.483Z,98.89
2018-12-17T20:00:56.092Z,98.74
2018-12-17T20:03:25.521Z,99.24
2018-12-17T20:05:54.789Z,98.77
2018-12-17T20:08:23.858Z,98.63
2018-12-17T20:10:53.361Z,98.97
2018-12-17T20:13:22.009Z,98.94
2018-12-17T20:15:50.680Z,98.87
2018-12-17T20:18:20.653Z,98.17
2018-12-17T20:20:49.810Z,98.48
2018-12-17T20:23:19.781Z,98.88
2018-12-17T20:25:48.455Z,98.68
2018-12-17T20:28:17.749Z,98.24
2018-12-17T20:30:47.194Z,98.70
2018-12-17T20:33:15.865Z,98.77
2018-12-17T20:35:44.472Z,98.59
2018-12-17T20:38:13.253Z,98.24
2018-12-17T20:40:41.857Z,98.81
2018-12-17T20:43:10.466Z,98.41
2018-12-17T20:45:40.635Z,98.24
2018-12-17T20:48:09.225Z,98.30
2018-12-17T20:50:37.842Z,98.44
2018-12-17T20:53:06.616Z,98.33
2018-12-17T20:55:35.196Z,98.01
2018-12-17T20:58:03.822Z,97.97
2018-12-17T21:00:32.491Z,98.36
2018-12-17T21:03:01.055Z,98.64
2018-12-17T21:05:29.729Z,98.74
2018-12-17T21:07:59.008Z,98.91
2018-12-17T21:10:27.605Z,100.00
2018-12-17T21:12:56.076Z,100.00
2018-12-17T21:15:25.804Z,100.00
2018-12-17T21:17:54.454Z,99.45
2018-12-17T21:20:23.757Z,98.12
2018-12-17T21:22:52.949Z,98.13
2018-12-17T21:25:21.477Z,97.82
2018-12-17T21:27:50.024Z,98.63
2018-12-17T21:30:18.603Z,98.71
2018-12-17T21:32:47.327Z,98.36
2018-12-17T21:35:15.938Z,98.04
2018-12-17T21:37:45.013Z,98.44
2018-12-17T21:40:13.581Z,99.56
2018-12-17T21:42:42.831Z,99.52
2018-12-17T21:45:14.050Z,99.44
2018-12-17T21:47:43.195Z,99.92
2018-12-17T21:50:13.030Z,100.00
2018-12-17T21:52:41.706Z,99.82
2018-12-17T21:55:10.246Z,99.61
2018-12-17T21:57:38.954Z,99.81
2018-12-17T22:00:07.887Z,99.70
2018-12-17T22:02:36.697Z,99.20
2018-12-17T22:05:06.666Z,99.02
2018-12-17T22:07:35.778Z,98.54
2018-12-17T22:10:04.855Z,99.19
2018-12-17T22:12:34.501Z,99.41
2018-12-17T22:15:03.110Z,99.72
2018-12-17T22:17:32.482Z,99.76
2018-12-17T22:20:01.066Z,99.66
2018-12-17T22:22:29.603Z,99.19
2018-12-17T22:24:58.129Z,99.85
2018-12-17T22:27:26.740Z,99.80
2018-12-17T22:29:55.215Z,99.91
2018-12-17T22:32:23.886Z,100.00
2018-12-17T22:34:52.437Z,100.00
2018-12-17T22:37:21.115Z,100.00
2018-12-17T22:39:49.734Z,100.00
2018-12-17T22:42:18.486Z,100.00
2018-12-17T22:44:47.130Z,100.00
2018-12-17T22:47:15.719Z,100.00
2018-12-17T22:49:44.326Z,100.00
2018-12-17T22:52:12.971Z,100.00
2018-12-17T22:54:41.676Z,100.00
2018-12-17T22:57:10.298Z,100.00
2018-12-17T22:59:38.874Z,100.00
2018-12-17T23:02:07.546Z,100.00
2018-12-17T23:04:36.135Z,100.00
2018-12-17T23:07:04.781Z,100.00
2018-12-17T23:09:44.449Z,100.00
2018-12-17T23:12:24.601Z,100.00
2018-12-17T23:15:04.347Z,100.00
2018-12-17T23:17:40.378Z,100.00
2018-12-17T23:20:09.846Z,100.00
2018-12-17T23:22:40.232Z,100.00
2018-12-17T23:25:10.027Z,100.00
2018-12-17T23:27:38.708Z,100.00
2018-12-17T23:30:08.867Z,100.00
2018-12-17T23:32:37.881Z,100.00
2018-12-17T23:35:08.102Z,100.00
2018-12-17T23:37:36.780Z,100.00
2018-12-17T23:40:05.599Z,100.00
2018-12-17T23:42:34.194Z,100.00
2018-12-17T23:45:02.749Z,100.00
2018-12-17T23:47:31.386Z,99.99
2018-12-17T23:49:59.889Z,99.35
2018-12-17T23:52:28.554Z,99.90
2018-12-17T23:54:57.399Z,99.74
2018-12-17T23:57:27.513Z,99.51
2018-12-17T23:59:56.151Z,100.00
